sensor_id;sensor_type;location;lat;lon;timestamp;pressure;altitude;pressure_sealevel;temperature
69348;BMP280;56497;45.058;41.926;2023-12-04T13:18:58;94673.84;;;12.75
69348;BMP280;56497;45.058;41.926;2023-12-04T13:19:29;94673.84;;;12.75
69348;BMP280;56497;45.058;41.926;2023-12-04T13:20:02;94670.66;;;12.76
69348;BMP280;56497;45.058;41.926;2023-12-04T13:20:34;94668.22;;;12.78
69348;BMP280;56497;45.058;41.926;2023-12-04T13:21:05;94673.00;;;12.83
69348;BMP280;56497;45.058;41.926;2023-12-04T13:21:36;94672.03;;;12.87
69348;BMP280;56497;45.058;41.926;2023-12-04T13:22:08;94671.97;;;13.01
69348;BMP280;56497;45.058;41.926;2023-12-04T13:22:39;94671.31;;;13.06
69348;BMP280;56497;45.058;41.926;2023-12-04T13:23:09;94678.13;;;13.17
69348;BMP280;56497;45.058;41.926;2023-12-04T13:23:40;94678.97;;;13.23
69348;BMP280;56497;45.058;41.926;2023-12-04T13:24:11;94672.09;;;13.27
69348;BMP280;56497;45.058;41.926;2023-12-04T13:24:42;94672.09;;;13.27
69348;BMP280;56497;45.058;41.926;2023-12-04T13:25:13;94672.97;;;13.39
69348;BMP280;56497;45.058;41.926;2023-12-04T13:25:43;94674.09;;;13.53
69348;BMP280;56497;45.058;41.926;2023-12-04T13:26:14;94674.09;;;13.53
69348;BMP280;56497;45.058;41.926;2023-12-04T13:26:46;94666.00;;;13.58
69348;BMP280;56497;45.058;41.926;2023-12-04T13:27:16;94667.34;;;13.68
69348;BMP280;56497;45.058;41.926;2023-12-04T13:27:47;94670.88;;;13.74
69348;BMP280;56497;45.058;41.926;2023-12-04T13:28:18;94666.22;;;13.80
69348;BMP280;56497;45.058;41.926;2023-12-04T13:28:48;94665.56;;;13.91
69348;BMP280;56497;45.058;41.926;2023-12-04T13:29:19;94671.06;;;13.97
69348;BMP280;56497;45.058;41.926;2023-12-04T13:29:50;94671.06;;;13.97
69348;BMP280;56497;45.058;41.926;2023-12-04T13:30:20;94669.63;;;14.01
69348;BMP280;56497;45.058;41.926;2023-12-04T13:30:51;94668.66;;;14.04
69348;BMP280;56497;45.058;41.926;2023-12-04T13:31:23;94676.91;;;14.10
69348;BMP280;56497;45.058;41.926;2023-12-04T13:31:53;94675.72;;;14.17
69348;BMP280;56497;45.058;41.926;2023-12-04T13:32:24;94676.75;;;14.19
69348;BMP280;56497;45.058;41.926;2023-12-04T13:32:55;94679.75;;;14.27
69348;BMP280;56497;45.058;41.926;2023-12-04T13:33:26;94680.31;;;14.31
69348;BMP280;56497;45.058;41.926;2023-12-04T13:33:56;94679.63;;;14.36
69348;BMP280;56497;45.058;41.926;2023-12-04T13:34:27;94685.56;;;14.40
69348;BMP280;56497;45.058;41.926;2023-12-04T13:34:58;94678.66;;;14.44
69348;BMP280;56497;45.058;41.926;2023-12-04T13:35:29;94678.66;;;14.44
69348;BMP280;56497;45.058;41.926;2023-12-04T13:35:59;94681.66;;;14.47
69348;BMP280;56497;45.058;41.926;2023-12-04T13:36:30;94686.44;;;14.57
69348;BMP280;56497;45.058;41.926;2023-12-04T13:37:01;94686.44;;;14.57
69348;BMP280;56497;45.058;41.926;2023-12-04T13:37:33;94680.03;;;14.60
69348;BMP280;56497;45.058;41.926;2023-12-04T13:38:04;94676.31;;;14.63
69348;BMP280;56497;45.058;41.926;2023-12-04T13:38:43;94683.59;;;14.72
69348;BMP280;56497;45.058;41.926;2023-12-04T13:39:14;94687.28;;;14.74
69348;BMP280;56497;45.058;41.926;2023-12-04T13:39:47;94684.13;;;14.82
69348;BMP280;56497;45.058;41.926;2023-12-04T13:40:18;94680.69;;;14.87
69348;BMP280;56497;45.058;41.926;2023-12-04T13:40:49;94680.69;;;14.87
69348;BMP280;56497;45.058;41.926;2023-12-04T13:41:31;94685.94;;;14.90
69348;BMP280;56497;45.058;41.926;2023-12-04T13:42:20;94675.97;;;14.87
69348;BMP280;56497;45.058;41.926;2023-12-04T13:43:09;94691.41;;;14.90
69348;BMP280;56497;45.058;41.926;2023-12-04T13:43:58;94679.16;;;14.80
69348;BMP280;56497;45.058;41.926;2023-12-04T13:44:30;94679.16;;;14.80
69348;BMP280;56497;45.058;41.926;2023-12-04T13:45:01;94693.38;;;14.95
69348;BMP280;56497;45.058;41.926;2023-12-04T13:45:33;94693.38;;;14.95
69348;BMP280;56497;45.058;41.926;2023-12-04T13:46:05;94692.16;;;14.96
69348;BMP280;56497;45.058;41.926;2023-12-04T13:46:39;94693.63;;;14.97
69348;BMP280;56497;45.058;41.926;2023-12-04T13:47:10;94701.81;;;14.97
69348;BMP280;56497;45.058;41.926;2023-12-04T13:47:42;94693.38;;;14.95
69348;BMP280;56497;45.058;41.926;2023-12-04T13:48:14;94693.38;;;14.95
69348;BMP280;56497;45.058;41.926;2023-12-04T13:48:45;94694.91;;;14.96
69348;BMP280;56497;45.058;41.926;2023-12-04T13:49:16;94690.63;;;14.90
69348;BMP280;56497;45.058;41.926;2023-12-04T13:49:49;94690.63;;;14.90
69348;BMP280;56497;45.058;41.926;2023-12-04T13:50:20;94693.09;;;14.88
69348;BMP280;56497;45.058;41.926;2023-12-04T13:50:51;94681.91;;;14.86
69348;BMP280;56497;45.058;41.926;2023-12-04T13:51:23;94693.53;;;14.81
69348;BMP280;56497;45.058;41.926;2023-12-04T13:51:53;94693.53;;;14.81
69348;BMP280;56497;45.058;41.926;2023-12-04T13:52:24;94700.94;;;14.74
69348;BMP280;56497;45.058;41.926;2023-12-04T13:52:55;94688.00;;;14.69
69348;BMP280;56497;45.058;41.926;2023-12-04T13:53:27;94688.00;;;14.69
69348;BMP280;56497;45.058;41.926;2023-12-04T13:54:00;94690.47;;;14.67
69348;BMP280;56497;45.058;41.926;2023-12-04T13:54:46;94690.56;;;14.47
69348;BMP280;56497;45.058;41.926;2023-12-04T13:55:20;94690.56;;;14.47
69348;BMP280;56497;45.058;41.926;2023-12-04T13:55:52;94693.03;;;14.45
69348;BMP280;56497;45.058;41.926;2023-12-04T13:56:32;94698.25;;;14.43
69348;BMP280;56497;45.058;41.926;2023-12-04T13:57:24;94698.16;;;14.32
69348;BMP280;56497;45.058;41.926;2023-12-04T13:58:04;94698.31;;;14.23
69348;BMP280;56497;45.058;41.926;2023-12-04T13:58:34;94694.78;;;14.17
69348;BMP280;56497;45.058;41.926;2023-12-04T13:59:10;94694.34;;;14.18
69348;BMP280;56497;45.058;41.926;2023-12-04T13:59:48;94705.44;;;14.15
69348;BMP280;56497;45.058;41.926;2023-12-04T14:00:19;94705.44;;;14.15
69348;BMP280;56497;45.058;41.926;2023-12-04T14:00:50;94698.47;;;14.13
69348;BMP280;56497;45.058;41.926;2023-12-04T14:01:21;94700.50;;;14.13
69348;BMP280;56497;45.058;41.926;2023-12-04T14:01:54;94690.53;;;14.10
69348;BMP280;56497;45.058;41.926;2023-12-04T14:02:30;94693.69;;;14.03
69348;BMP280;56497;45.058;41.926;2023-12-04T14:03:01;94693.69;;;14.03
69348;BMP280;56497;45.058;41.926;2023-12-04T14:03:35;94691.19;;;13.99
69348;BMP280;56497;45.058;41.926;2023-12-04T14:04:06;94690.59;;;13.90
69348;BMP280;56497;45.058;41.926;2023-12-04T14:04:36;94690.59;;;13.90
69348;BMP280;56497;45.058;41.926;2023-12-04T14:05:09;94701.19;;;13.82
69348;BMP280;56497;45.058;41.926;2023-12-04T14:05:39;94701.19;;;13.82
69348;BMP280;56497;45.058;41.926;2023-12-04T14:06:10;94696.16;;;13.75
69348;BMP280;56497;45.058;41.926;2023-12-04T14:06:41;94693.88;;;13.73
69348;BMP280;56497;45.058;41.926;2023-12-04T14:07:12;94694.56;;;13.68
69348;BMP280;56497;45.058;41.926;2023-12-04T14:07:42;94703.72;;;13.65
69348;BMP280;56497;45.058;41.926;2023-12-04T14:08:13;94692.28;;;13.61
69348;BMP280;56497;45.058;41.926;2023-12-04T14:08:44;94703.66;;;13.60
69348;BMP280;56497;45.058;41.926;2023-12-04T14:09:16;94704.13;;;13.58
69348;BMP280;56497;45.058;41.926;2023-12-04T14:09:46;94691.41;;;13.50
69348;BMP280;56497;45.058;41.926;2023-12-04T14:10:17;94708.28;;;13.54
69348;BMP280;56497;45.058;41.926;2023-12-04T14:10:48;94708.28;;;13.54
69348;BMP280;56497;45.058;41.926;2023-12-04T14:11:19;94700.31;;;13.50
69348;BMP280;56497;45.058;41.926;2023-12-04T14:11:49;94701.22;;;13.41
69348;BMP280;56497;45.058;41.926;2023-12-04T14:12:20;94696.75;;;13.44
69348;BMP280;56497;45.058;41.926;2023-12-04T14:12:52;94700.19;;;13.39
69348;BMP280;56497;45.058;41.926;2023-12-04T14:13:22;94702.38;;;13.35
69348;BMP280;56497;45.058;41.926;2023-12-04T14:13:53;94696.94;;;13.35
69348;BMP280;56497;45.058;41.926;2023-12-04T14:14:24;94696.38;;;13.31
69348;BMP280;56497;45.058;41.926;2023-12-04T14:14:54;94705.03;;;13.29
69348;BMP280;56497;45.058;41.926;2023-12-04T14:15:28;94694.53;;;13.22
69348;BMP280;56497;45.058;41.926;2023-12-04T14:15:59;94694.53;;;13.22
69348;BMP280;56497;45.058;41.926;2023-12-04T14:16:30;94703.19;;;13.21
69348;BMP280;56497;45.058;41.926;2023-12-04T14:17:01;94696.72;;;13.18
69348;BMP280;56497;45.058;41.926;2023-12-04T14:17:34;94702.16;;;13.18
69348;BMP280;56497;45.058;41.926;2023-12-04T14:18:04;94707.34;;;13.16
69348;BMP280;56497;45.058;41.926;2023-12-04T14:18:35;94701.31;;;13.12
69348;BMP280;56497;45.058;41.926;2023-12-04T14:19:06;94703.22;;;13.06
69348;BMP280;56497;45.058;41.926;2023-12-04T14:19:37;94700.50;;;13.06
69348;BMP280;56497;45.058;41.926;2023-12-04T14:20:10;94700.50;;;13.06
69348;BMP280;56497;45.058;41.926;2023-12-04T14:20:46;94701.63;;;12.99
69348;BMP280;56497;45.058;41.926;2023-12-04T14:21:18;94700.81;;;12.93
69348;BMP280;56497;45.058;41.926;2023-12-04T14:21:49;94707.22;;;12.90
69348;BMP280;56497;45.058;41.926;2023-12-04T14:22:19;94707.22;;;12.90
69348;BMP280;56497;45.058;41.926;2023-12-04T14:22:50;94707.22;;;12.90
69348;BMP280;56497;45.058;41.926;2023-12-04T14:23:21;94703.19;;;12.86
69348;BMP280;56497;45.058;41.926;2023-12-04T14:23:51;94704.88;;;12.83
69348;BMP280;56497;45.058;41.926;2023-12-04T14:24:22;94696.28;;;12.70
69348;BMP280;56497;45.058;41.926;2023-12-04T14:24:53;94709.69;;;12.73
69348;BMP280;56497;45.058;41.926;2023-12-04T14:25:23;94709.69;;;12.73
69348;BMP280;56497;45.058;41.926;2023-12-04T14:25:54;94710.13;;;12.72
69348;BMP280;56497;45.058;41.926;2023-12-04T14:26:25;94716.06;;;12.70
69348;BMP280;56497;45.058;41.926;2023-12-04T14:26:55;94706.13;;;12.67
69348;BMP280;56497;45.058;41.926;2023-12-04T14:27:26;94716.28;;;12.67
69348;BMP280;56497;45.058;41.926;2023-12-04T14:27:57;94708.03;;;12.61
69348;BMP280;56497;45.058;41.926;2023-12-04T14:28:28;94708.94;;;12.58
69348;BMP280;56497;45.058;41.926;2023-12-04T14:28:59;94712.72;;;12.61
69348;BMP280;56497;45.058;41.926;2023-12-04T14:29:31;94705.97;;;12.56
69348;BMP280;56497;45.058;41.926;2023-12-04T14:30:02;94716.28;;;12.52
69348;BMP280;56497;45.058;41.926;2023-12-04T14:30:34;94716.28;;;12.52
69348;BMP280;56497;45.058;41.926;2023-12-04T14:31:04;94707.88;;;12.50
69348;BMP280;56497;45.058;41.926;2023-12-04T14:31:35;94720.13;;;12.45
69348;BMP280;56497;45.058;41.926;2023-12-04T14:32:06;94720.13;;;12.45
69348;BMP280;56497;45.058;41.926;2023-12-04T14:32:37;94723.31;;;12.44
69348;BMP280;56497;45.058;41.926;2023-12-04T14:33:08;94723.31;;;12.44
69348;BMP280;56497;45.058;41.926;2023-12-04T14:33:39;94718.06;;;12.40
69348;BMP280;56497;45.058;41.926;2023-12-04T14:34:10;94726.97;;;12.41
69348;BMP280;56497;45.058;41.926;2023-12-04T14:34:41;94725.47;;;12.40
69348;BMP280;56497;45.058;41.926;2023-12-04T14:35:11;94717.97;;;12.35
69348;BMP280;56497;45.058;41.926;2023-12-04T14:35:43;94717.97;;;12.35
69348;BMP280;56497;45.058;41.926;2023-12-04T14:36:14;94711.97;;;12.31
69348;BMP280;56497;45.058;41.926;2023-12-04T14:36:46;94723.78;;;12.28
69348;BMP280;56497;45.058;41.926;2023-12-04T14:37:17;94723.78;;;12.28
69348;BMP280;56497;45.058;41.926;2023-12-04T14:37:48;94722.00;;;12.25
69348;BMP280;56497;45.058;41.926;2023-12-04T14:38:20;94717.50;;;12.22
69348;BMP280;56497;45.058;41.926;2023-12-04T14:38:51;94722.94;;;12.22
69348;BMP280;56497;45.058;41.926;2023-12-04T14:39:22;94722.94;;;12.22
69348;BMP280;56497;45.058;41.926;2023-12-04T14:39:52;94715.25;;;12.20
69348;BMP280;56497;45.058;41.926;2023-12-04T14:40:23;94717.22;;;12.19
69348;BMP280;56497;45.058;41.926;2023-12-04T14:40:54;94717.22;;;12.19
69348;BMP280;56497;45.058;41.926;2023-12-04T14:41:25;94725.66;;;12.22
69348;BMP280;56497;45.058;41.926;2023-12-04T14:41:55;94722.66;;;12.19
69348;BMP280;56497;45.058;41.926;2023-12-04T14:42:27;94722.66;;;12.19
69348;BMP280;56497;45.058;41.926;2023-12-04T14:42:58;94718.88;;;12.17
69348;BMP280;56497;45.058;41.926;2023-12-04T14:43:29;94728.75;;;12.14
69348;BMP280;56497;45.058;41.926;2023-12-04T14:44:00;94722.81;;;12.16
69348;BMP280;56497;45.058;41.926;2023-12-04T14:44:31;94724.78;;;12.15
69348;BMP280;56497;45.058;41.926;2023-12-04T14:45:02;94734.19;;;12.14
69348;BMP280;56497;45.058;41.926;2023-12-04T14:45:33;94736.63;;;12.12
69348;BMP280;56497;45.058;41.926;2023-12-04T14:46:04;94736.63;;;12.12
69348;BMP280;56497;45.058;41.926;2023-12-04T14:46:35;94735.56;;;12.10
69348;BMP280;56497;45.058;41.926;2023-12-04T14:47:06;94730.59;;;12.08
69348;BMP280;56497;45.058;41.926;2023-12-04T14:47:39;94730.59;;;12.08
69348;BMP280;56497;45.058;41.926;2023-12-04T14:48:11;94730.50;;;12.03
69348;BMP280;56497;45.058;41.926;2023-12-04T14:48:42;94730.50;;;12.03
69348;BMP280;56497;45.058;41.926;2023-12-04T14:49:12;94740.91;;;12.04
69348;BMP280;56497;45.058;41.926;2023-12-04T14:49:43;94727.13;;;11.93
69348;BMP280;56497;45.058;41.926;2023-12-04T14:50:14;94727.13;;;11.93
69348;BMP280;56497;45.058;41.926;2023-12-04T14:50:44;94742.78;;;11.98
69348;BMP280;56497;45.058;41.926;2023-12-04T14:51:16;94745.03;;;12.00
69348;BMP280;56497;45.058;41.926;2023-12-04T14:51:46;94744.25;;;11.99
69348;BMP280;56497;45.058;41.926;2023-12-04T14:52:18;94743.69;;;11.95
69348;BMP280;56497;45.058;41.926;2023-12-04T14:52:51;94744.19;;;11.94
69348;BMP280;56497;45.058;41.926;2023-12-04T14:53:25;94742.84;;;11.89
69348;BMP280;56497;45.058;41.926;2023-12-04T14:54:13;94742.84;;;11.89
69348;BMP280;56497;45.058;41.926;2023-12-04T14:55:07;94743.75;;;11.71
69348;BMP280;56497;45.058;41.926;2023-12-04T14:55:38;94743.75;;;11.71
69348;BMP280;56497;45.058;41.926;2023-12-04T14:56:29;94739.53;;;11.70
69348;BMP280;56497;45.058;41.926;2023-12-04T14:57:18;94737.34;;;11.60
69348;BMP280;56497;45.058;41.926;2023-12-04T14:57:52;94740.69;;;11.54
69348;BMP280;56497;45.058;41.926;2023-12-04T14:58:29;94742.19;;;11.55
69348;BMP280;56497;45.058;41.926;2023-12-04T14:59:14;94733.75;;;11.53
69348;BMP280;56497;45.058;41.926;2023-12-04T15:00:09;94731.41;;;11.46
69348;BMP280;56497;45.058;41.926;2023-12-04T15:00:40;94731.41;;;11.46
69348;BMP280;56497;45.058;41.926;2023-12-04T15:01:16;94731.19;;;11.50
69348;BMP280;56497;45.058;41.926;2023-12-04T15:01:47;94734.66;;;11.50
69348;BMP280;56497;45.058;41.926;2023-12-04T15:02:37;94737.22;;;11.54
69348;BMP280;56497;45.058;41.926;2023-12-04T15:03:10;94732.69;;;11.51
69348;BMP280;56497;45.058;41.926;2023-12-04T15:04:03;94732.69;;;11.51
69348;BMP280;56497;45.058;41.926;2023-12-04T15:04:43;94732.63;;;11.45
69348;BMP280;56497;45.058;41.926;2023-12-04T15:05:32;94729.78;;;11.40
69348;BMP280;56497;45.058;41.926;2023-12-04T15:06:21;94737.63;;;11.38
69348;BMP280;56497;45.058;41.926;2023-12-04T15:06:54;94737.63;;;11.38
69348;BMP280;56497;45.058;41.926;2023-12-04T15:07:28;94734.47;;;11.39
69348;BMP280;56497;45.058;41.926;2023-12-04T15:08:19;94734.25;;;11.43
69348;BMP280;56497;45.058;41.926;2023-12-04T15:09:08;94736.88;;;11.37
69348;BMP280;56497;45.058;41.926;2023-12-04T15:09:48;94737.63;;;11.38
69348;BMP280;56497;45.058;41.926;2023-12-04T15:10:36;94733.69;;;11.39
69348;BMP280;56497;45.058;41.926;2023-12-04T15:11:42;94733.88;;;11.35
69348;BMP280;56497;45.058;41.926;2023-12-04T15:12:16;94733.88;;;11.35
69348;BMP280;56497;45.058;41.926;2023-12-04T15:12:49;94735.97;;;11.40
69348;BMP280;56497;45.058;41.926;2023-12-04T15:13:35;94743.00;;;11.47
69348;BMP280;56497;45.058;41.926;2023-12-04T15:14:24;94739.09;;;11.48
69348;BMP280;56497;45.058;41.926;2023-12-04T15:15:13;94736.84;;;11.46
69348;BMP280;56497;45.058;41.926;2023-12-04T15:15:44;94733.47;;;11.51
69348;BMP280;56497;45.058;41.926;2023-12-04T15:16:35;94733.47;;;11.51
69348;BMP280;56497;45.058;41.926;2023-12-04T15:17:17;94736.94;;;11.52
69348;BMP280;56497;45.058;41.926;2023-12-04T15:17:59;94736.47;;;11.53
69348;BMP280;56497;45.058;41.926;2023-12-04T15:18:48;94740.69;;;11.54
69348;BMP280;56497;45.058;41.926;2023-12-04T15:19:51;94738.91;;;11.51
69348;BMP280;56497;45.058;41.926;2023-12-04T15:20:47;94738.91;;;11.51
69348;BMP280;56497;45.058;41.926;2023-12-04T15:21:18;94733.19;;;11.49
69348;BMP280;56497;45.058;41.926;2023-12-04T15:21:49;94735.09;;;11.58
69348;BMP280;56497;45.058;41.926;2023-12-04T15:22:20;94735.09;;;11.58
69348;BMP280;56497;45.058;41.926;2023-12-04T15:22:54;94723.94;;;11.56
69348;BMP280;56497;45.058;41.926;2023-12-04T15:23:25;94724.91;;;11.68
69348;BMP280;56497;45.058;41.926;2023-12-04T15:23:57;94730.19;;;11.71
69348;BMP280;56497;45.058;41.926;2023-12-04T15:24:28;94731.19;;;11.74
69348;BMP280;56497;45.058;41.926;2023-12-04T15:24:58;94731.59;;;11.81
69348;BMP280;56497;45.058;41.926;2023-12-04T15:25:29;94731.59;;;11.81
69348;BMP280;56497;45.058;41.926;2023-12-04T15:26:00;94731.66;;;11.87
69348;BMP280;56497;45.058;41.926;2023-12-04T15:26:37;94731.66;;;11.87
69348;BMP280;56497;45.058;41.926;2023-12-04T15:27:08;94727.50;;;11.86
69348;BMP280;56497;45.058;41.926;2023-12-04T15:27:39;94727.78;;;11.88
69348;BMP280;56497;45.058;41.926;2023-12-04T15:28:09;94728.06;;;11.90
69348;BMP280;56497;45.058;41.926;2023-12-04T15:28:41;94725.19;;;11.94
69348;BMP280;56497;45.058;41.926;2023-12-04T15:29:12;94725.19;;;11.94
69348;BMP280;56497;45.058;41.926;2023-12-04T15:29:43;94732.56;;;11.93
69348;BMP280;56497;45.058;41.926;2023-12-04T15:30:16;94731.63;;;11.96
69348;BMP280;56497;45.058;41.926;2023-12-04T15:30:46;94721.69;;;11.93
69348;BMP280;56497;45.058;41.926;2023-12-04T15:31:17;94721.69;;;11.93
69348;BMP280;56497;45.058;41.926;2023-12-04T15:31:48;94734.34;;;11.96
69348;BMP280;56497;45.058;41.926;2023-12-04T15:32:18;94734.34;;;11.96
69348;BMP280;56497;45.058;41.926;2023-12-04T15:32:49;94729.84;;;11.93
69348;BMP280;56497;45.058;41.926;2023-12-04T15:33:20;94729.84;;;11.93
69348;BMP280;56497;45.058;41.926;2023-12-04T15:33:50;94733.31;;;11.94
69348;BMP280;56497;45.058;41.926;2023-12-04T15:34:22;94728.53;;;11.88
69348;BMP280;56497;45.058;41.926;2023-12-04T15:34:53;94728.53;;;11.88
69348;BMP280;56497;45.058;41.926;2023-12-04T15:35:23;94737.97;;;11.93
69348;BMP280;56497;45.058;41.926;2023-12-04T15:35:54;94737.97;;;11.93
69348;BMP280;56497;45.058;41.926;2023-12-04T15:36:24;94734.53;;;11.93
69348;BMP280;56497;45.058;41.926;2023-12-04T15:36:55;94737.97;;;11.93
69348;BMP280;56497;45.058;41.926;2023-12-04T15:37:26;94737.25;;;11.93
69348;BMP280;56497;45.058;41.926;2023-12-04T15:37:57;94726.84;;;11.91
69348;BMP280;56497;45.058;41.926;2023-12-04T15:38:27;94730.31;;;11.92
69348;BMP280;56497;45.058;41.926;2023-12-04T15:38:59;94732.28;;;11.91
69348;BMP280;56497;45.058;41.926;2023-12-04T15:39:30;94732.28;;;11.91
69348;BMP280;56497;45.058;41.926;2023-12-04T15:40:01;94732.56;;;11.93
69348;BMP280;56497;45.058;41.926;2023-12-04T15:40:31;94739.19;;;11.92
69348;BMP280;56497;45.058;41.926;2023-12-04T15:41:04;94739.19;;;11.92
69348;BMP280;56497;45.058;41.926;2023-12-04T15:41:34;94738.75;;;11.94
69348;BMP280;56497;45.058;41.926;2023-12-04T15:42:05;94738.75;;;11.94
69348;BMP280;56497;45.058;41.926;2023-12-04T15:42:37;94732.28;;;11.91
69348;BMP280;56497;45.058;41.926;2023-12-04T15:43:08;94735.75;;;11.92
69348;BMP280;56497;45.058;41.926;2023-12-04T15:43:38;94745.56;;;11.89
69348;BMP280;56497;45.058;41.926;2023-12-04T15:44:14;94734.69;;;11.89
69348;BMP280;56497;45.058;41.926;2023-12-04T15:44:48;94733.38;;;11.84
69348;BMP280;56497;45.058;41.926;2023-12-04T15:45:21;94727.22;;;11.84
69348;BMP280;56497;45.058;41.926;2023-12-04T15:45:52;94732.03;;;11.80
69348;BMP280;56497;45.058;41.926;2023-12-04T15:46:23;94732.03;;;11.80
69348;BMP280;56497;45.058;41.926;2023-12-04T15:46:55;94729.06;;;11.78
69348;BMP280;56497;45.058;41.926;2023-12-04T15:47:26;94738.44;;;11.77
69348;BMP280;56497;45.058;41.926;2023-12-04T15:47:56;94723.03;;;11.74
69348;BMP280;56497;45.058;41.926;2023-12-04T15:48:27;94732.69;;;11.75
69348;BMP280;56497;45.058;41.926;2023-12-04T15:48:58;94733.16;;;11.73
69348;BMP280;56497;45.058;41.926;2023-12-04T15:49:29;94734.38;;;11.72
69348;BMP280;56497;45.058;41.926;2023-12-04T15:49:59;94729.69;;;11.73
69348;BMP280;56497;45.058;41.926;2023-12-04T15:50:30;94725.75;;;11.74
69348;BMP280;56497;45.058;41.926;2023-12-04T15:51:01;94722.03;;;11.71
69348;BMP280;56497;45.058;41.926;2023-12-04T15:51:32;94728.78;;;11.76
69348;BMP280;56497;45.058;41.926;2023-12-04T15:52:04;94723.34;;;11.76
69348;BMP280;56497;45.058;41.926;2023-12-04T15:52:35;94727.56;;;11.77
69348;BMP280;56497;45.058;41.926;2023-12-04T15:53:10;94727.56;;;11.77
69348;BMP280;56497;45.058;41.926;2023-12-04T15:53:40;94714.16;;;11.73
69348;BMP280;56497;45.058;41.926;2023-12-04T15:54:11;94709.78;;;11.76
69348;BMP280;56497;45.058;41.926;2023-12-04T15:54:42;94709.78;;;11.76
69348;BMP280;56497;45.058;41.926;2023-12-04T15:55:12;94713.53;;;11.78
69348;BMP280;56497;45.058;41.926;2023-12-04T15:55:43;94709.56;;;11.79
69348;BMP280;56497;45.058;41.926;2023-12-04T15:56:13;94709.56;;;11.79
69348;BMP280;56497;45.058;41.926;2023-12-04T15:56:44;94714.28;;;11.79
69348;BMP280;56497;45.058;41.926;2023-12-04T15:57:15;94713.53;;;11.78
69348;BMP280;56497;45.058;41.926;2023-12-04T15:57:46;94708.09;;;11.78
69348;BMP280;56497;45.058;41.926;2023-12-04T15:58:21;94718.22;;;11.78
69348;BMP280;56497;45.058;41.926;2023-12-04T15:58:52;94722.69;;;11.81
69348;BMP280;56497;45.058;41.926;2023-12-04T15:59:22;94717.25;;;11.81
69348;BMP280;56497;45.058;41.926;2023-12-04T15:59:53;94721.78;;;11.84
69348;BMP280;56497;45.058;41.926;2023-12-04T16:00:25;94716.50;;;11.80
69348;BMP280;56497;45.058;41.926;2023-12-04T16:00:56;94714.53;;;11.81
69348;BMP280;56497;45.058;41.926;2023-12-04T16:01:26;94714.53;;;11.81
69348;BMP280;56497;45.058;41.926;2023-12-04T16:01:58;94721.59;;;11.87
69348;BMP280;56497;45.058;41.926;2023-12-04T16:02:28;94719.16;;;11.89
69348;BMP280;56497;45.058;41.926;2023-12-04T16:02:59;94716.72;;;11.92
69348;BMP280;56497;45.058;41.926;2023-12-04T16:03:31;94717.28;;;11.96
69348;BMP280;56497;45.058;41.926;2023-12-04T16:04:01;94717.28;;;11.96
69348;BMP280;56497;45.058;41.926;2023-12-04T16:04:32;94714.09;;;11.97
69348;BMP280;56497;45.058;41.926;2023-12-04T16:05:03;94718.31;;;11.98
69348;BMP280;56497;45.058;41.926;2023-12-04T16:05:35;94712.88;;;11.98
69348;BMP280;56497;45.058;41.926;2023-12-04T16:06:05;94710.63;;;11.97
69348;BMP280;56497;45.058;41.926;2023-12-04T16:06:37;94716.66;;;12.01
69348;BMP280;56497;45.058;41.926;2023-12-04T16:07:07;94716.66;;;12.01
69348;BMP280;56497;45.058;41.926;2023-12-04T16:07:38;94717.88;;;12.00
69348;BMP280;56497;45.058;41.926;2023-12-04T16:08:09;94718.13;;;12.02
69348;BMP280;56497;45.058;41.926;2023-12-04T16:08:39;94718.13;;;12.02
69348;BMP280;56497;45.058;41.926;2023-12-04T16:09:10;94719.16;;;12.04
69348;BMP280;56497;45.058;41.926;2023-12-04T16:09:43;94717.19;;;12.05
69348;BMP280;56497;45.058;41.926;2023-12-04T16:10:14;94716.44;;;12.04
69348;BMP280;56497;45.058;41.926;2023-12-04T16:10:45;94719.63;;;12.03
69348;BMP280;56497;45.058;41.926;2023-12-04T16:11:19;94708.19;;;11.99
69348;BMP280;56497;45.058;41.926;2023-12-04T16:11:49;94715.69;;;12.04
69348;BMP280;56497;45.058;41.926;2023-12-04T16:12:20;94710.47;;;12.00
69348;BMP280;56497;45.058;41.926;2023-12-04T16:12:51;94710.47;;;12.00
69348;BMP280;56497;45.058;41.926;2023-12-04T16:13:21;94712.13;;;11.98
69348;BMP280;56497;45.058;41.926;2023-12-04T16:13:58;94712.88;;;11.98
69348;BMP280;56497;45.058;41.926;2023-12-04T16:14:28;94716.81;;;11.97
69348;BMP280;56497;45.058;41.926;2023-12-04T16:14:59;94716.81;;;11.97
69348;BMP280;56497;45.058;41.926;2023-12-04T16:15:30;94719.25;;;11.95
69348;BMP280;56497;45.058;41.926;2023-12-04T16:16:01;94717.03;;;11.94
69348;BMP280;56497;45.058;41.926;2023-12-04T16:16:32;94726.19;;;11.96
69348;BMP280;56497;45.058;41.926;2023-12-04T16:17:02;94726.19;;;11.96
69348;BMP280;56497;45.058;41.926;2023-12-04T16:17:36;94718.22;;;11.93
69348;BMP280;56497;45.058;41.926;2023-12-04T16:18:08;94714.75;;;11.92
69348;BMP280;56497;45.058;41.926;2023-12-04T16:18:41;94714.94;;;11.88
69348;BMP280;56497;45.058;41.926;2023-12-04T16:19:12;94714.94;;;11.88
69348;BMP280;56497;45.058;41.926;2023-12-04T16:19:43;94728.81;;;11.91
69348;BMP280;56497;45.058;41.926;2023-12-04T16:20:13;94721.41;;;11.91
69348;BMP280;56497;45.058;41.926;2023-12-04T16:20:44;94727.59;;;11.92
69348;BMP280;56497;45.058;41.926;2023-12-04T16:21:17;94717.25;;;11.81
69348;BMP280;56497;45.058;41.926;2023-12-04T16:21:47;94730.97;;;11.86
69348;BMP280;56497;45.058;41.926;2023-12-04T16:22:18;94730.97;;;11.86
69348;BMP280;56497;45.058;41.926;2023-12-04T16:22:49;94719.06;;;11.84
69348;BMP280;56497;45.058;41.926;2023-12-04T16:23:19;94719.97;;;11.81
69348;BMP280;56497;45.058;41.926;2023-12-04T16:23:50;94719.97;;;11.81
69348;BMP280;56497;45.058;41.926;2023-12-04T16:24:27;94721.66;;;11.78
69348;BMP280;56497;45.058;41.926;2023-12-04T16:24:58;94720.16;;;11.77
69348;BMP280;56497;45.058;41.926;2023-12-04T16:25:29;94718.66;;;11.76
69348;BMP280;56497;45.058;41.926;2023-12-04T16:26:00;94718.66;;;11.76
69348;BMP280;56497;45.058;41.926;2023-12-04T16:26:31;94724.84;;;11.77